Hyalite Weather Station

This weather station provides temperature, wind speed, gust or max wind speed, and wind direction at 9982ft near the summit of Flanders Mountain. This data can be used with temperature and precipitation data from the Shower Falls SNOTEL site. If the data has not been updated recently you can view it directly on datagarrison.com

Elevation
9982ft
Jump to table bottom
Date Time Temperature
deg F
RH, % Wind Speed Wind Gust Wind Direction
01/21/19 06:00 13.1 94 10 19 NW - 329
01/21/19 05:00 15.3 95 7 19 NW - 337
01/21/19 04:00 18.9 96 7 11 W - 260
01/21/19 03:00 19.2 96 7 17 SW - 239
01/21/19 02:00 19.2 96 14 23 SW - 234
01/21/19 01:00 19.5 96 16 25 SW - 234
01/21/19 00:00 19.9 96 10 21 SW - 236
01/20/19 23:00 19.8 95 12 20 SW - 244
01/20/19 22:00 20.5 92 16 28 SW - 244
01/20/19 21:00 21.7 85 27 43 SW - 244
01/20/19 20:00 21.9 88 33 45 SW - 244
01/20/19 19:00 22.2 90 27 47 SW - 247
01/20/19 18:00 22.4 89 31 50 SW - 241
01/20/19 17:00 22.9 87 31 49 SW - 240
01/20/19 16:00 24.1 84 30 47 SW - 237
01/20/19 15:00 23.1 88 28 46 SW - 239
01/20/19 14:00 22.8 91 31 48 SW - 240
01/20/19 13:00 23.7 88 28 45 SW - 239
01/20/19 12:00 22.8 97 25 45 SW - 243
01/20/19 11:00 23.2 97 20 34 SW - 239
01/20/19 10:00 23.3 97 19 32 SW - 241
01/20/19 09:00 21.6 97 9 24 SW - 236
01/20/19 08:00 20.3 96 9 15 W - 253
01/20/19 07:00 20.8 96 14 18 W - 260
01/20/19 06:00 20.9 96 16 26 W - 257
01/20/19 05:00 21.1 96 15 23 W - 248
01/20/19 04:00 20.9 96 13 24 SW - 246
01/20/19 03:00 20.0 96 5 12 W - 264
01/20/19 02:00 18.4 95 7 16 W - 272
01/20/19 01:00 21.4 96 10 16 SW - 243
01/20/19 00:00 19.5 96 6 14 SW - 244
01/19/19 23:00 21.5 96 12 27 SW - 244
01/19/19 22:00 22.4 97 14 27 SW - 243
01/19/19 21:00 22.5 97 20 37 SW - 247
01/19/19 20:00 21.9 96 23 47 SW - 247
01/19/19 19:00 23.2 92 29 44 W - 250
01/19/19 18:00 22.3 95 30 45 W - 250
01/19/19 17:00 23.1 94 29 43 W - 250
01/19/19 16:00 23.4 92 27 41 W - 256
01/19/19 15:00 24.6 89 25 43 W - 251
01/19/19 14:00 23.2 90 25 46 W - 251
01/19/19 13:00 23.4 91 24 39 W - 256
01/19/19 12:00 25.3 92 23 41 W - 263
01/19/19 11:00 25.0 91 23 35 W - 263
01/19/19 10:00 23.1 96 23 37 W - 263
01/19/19 09:00 21.6 96 24 44 W - 257
01/19/19 08:00 21.6 96 25 41 W - 258
01/19/19 07:00 15.9 94 21 34 W - 253
01/19/19 06:00 14.8 93 23 34 W - 253
01/19/19 05:00 13.3 90 26 37 W - 250